Terminal Aerodrome Forecast
Issued by NWS Tuscon, AZ

Home | Current Version | Previous Version | Text Only | Print | Product List | Glossary On
Versions: 1 2 3 4 5 6 7 8 9 10 11 12
000
FTUS45 KTWC 202300
TAFDUG
TAF
KDUG 202339Z 2100/2124 23011G18KT P6SM FEW180 BKN250
     FM210300 34006KT P6SM BKN250
     FM211600 17008KT P6SM FEW150 BKN250
     FM212000 21010G20KT P6SM SCT150 BKN250=

USA.gov is the U.S. government's official web portal to all federal, state and local government web resources and services.